createdAt,value
2022-10-22T00:00:55.792Z,100820.44
2022-10-22T00:03:23.939Z,100796.25
2022-10-22T00:05:51.640Z,100824.97
2022-10-22T00:08:19.627Z,100833.97
2022-10-22T00:10:47.423Z,100827.47
2022-10-22T00:13:15.640Z,100823.81
2022-10-22T00:15:44.810Z,100823.84
2022-10-22T00:18:12.500Z,100826.41
2022-10-22T00:20:40.388Z,100834.91
2022-10-22T00:23:08.373Z,100831.50
2022-10-22T00:25:37.156Z,100828.19
2022-10-22T00:28:05.279Z,100769.25
2022-10-22T00:30:33.027Z,100824.56
2022-10-22T00:33:02.048Z,100832.72
2022-10-22T00:35:30.155Z,100831.66
2022-10-22T00:37:57.830Z,100826.53
2022-10-22T00:40:26.343Z,100829.81
2022-10-22T00:42:54.179Z,100830.28
2022-10-22T00:45:25.360Z,100833.81
2022-10-22T00:48:01.094Z,100830.94
2022-10-22T00:50:34.205Z,100835.75
2022-10-22T00:53:03.436Z,100829.81
2022-10-22T00:55:32.242Z,100826.88
2022-10-22T00:58:02.595Z,100828.25
2022-10-22T01:00:30.374Z,100823.31
2022-10-22T01:02:59.123Z,100827.66
2022-10-22T01:05:30.830Z,100774.94
2022-10-22T01:07:58.923Z,100831.59
2022-10-22T01:10:42.238Z,100832.75
2022-10-22T01:13:23.826Z,100832.16
2022-10-22T01:16:00.364Z,100833.38
2022-10-22T01:18:38.191Z,100836.81
2022-10-22T01:21:19.540Z,100843.22
2022-10-22T01:24:07.152Z,100849.94
2022-10-22T01:26:44.928Z,100848.09
2022-10-22T01:29:18.181Z,100844.91
2022-10-22T01:31:51.451Z,100849.94
2022-10-22T01:34:20.179Z,100820.56
2022-10-22T01:36:49.289Z,100846.72
2022-10-22T01:39:18.543Z,100834.91
2022-10-22T01:41:47.153Z,100840.16
2022-10-22T01:44:30.570Z,100849.34
2022-10-22T01:47:12.510Z,100852.91
2022-10-22T01:49:53.552Z,100854.31
2022-10-22T01:52:32.930Z,100845.03
2022-10-22T01:55:10.891Z,100849.47
2022-10-22T01:57:51.026Z,100851.94
2022-10-22T02:00:21.461Z,100843.50
2022-10-22T02:02:56.231Z,100841.16
2022-10-22T02:05:29.471Z,100839.94
2022-10-22T02:08:02.676Z,100844.22
2022-10-22T02:10:31.937Z,100833.91
2022-10-22T02:13:02.492Z,100835.00
2022-10-22T02:15:34.366Z,100830.06
2022-10-22T02:18:02.463Z,100822.25
2022-10-22T02:20:32.966Z,100815.69
2022-10-22T02:23:01.816Z,100828.66
2022-10-22T02:25:33.514Z,100808.00
2022-10-22T02:28:06.256Z,100809.44
2022-10-22T02:30:37.317Z,100814.13
2022-10-22T02:33:12.735Z,100818.09
2022-10-22T02:35:42.770Z,100828.25
2022-10-22T02:38:12.608Z,100821.47
2022-10-22T02:40:40.536Z,100810.78
2022-10-22T02:43:08.386Z,100814.91
2022-10-22T02:45:38.287Z,100819.84
2022-10-22T02:48:06.872Z,100814.47
2022-10-22T02:50:34.581Z,100813.91
2022-10-22T02:53:02.366Z,100817.75
2022-10-22T02:55:30.284Z,100779.41
2022-10-22T02:57:58.030Z,100816.56
2022-10-22T03:00:25.792Z,100825.72
2022-10-22T03:02:54.910Z,100825.69
2022-10-22T03:05:22.623Z,100832.47
2022-10-22T03:07:50.323Z,100829.72
2022-10-22T03:10:18.240Z,100832.50
2022-10-22T03:12:45.922Z,100832.56
2022-10-22T03:15:14.307Z,100820.91
2022-10-22T03:17:42.343Z,100834.38
2022-10-22T03:20:11.677Z,100843.91
2022-10-22T03:22:41.965Z,100806.94
2022-10-22T03:25:13.369Z,100842.22
2022-10-22T03:27:42.853Z,100853.06
2022-10-22T03:30:12.245Z,100857.00
2022-10-22T03:32:40.175Z,100857.19
2022-10-22T03:35:08.478Z,100860.66
2022-10-22T03:37:38.745Z,100858.09
2022-10-22T03:40:08.950Z,100866.13
2022-10-22T03:42:36.666Z,100881.66
2022-10-22T03:45:05.169Z,100875.91
2022-10-22T03:47:32.876Z,100874.19
2022-10-22T03:50:00.552Z,100896.47
2022-10-22T03:52:28.265Z,100901.59
2022-10-22T03:54:57.735Z,100904.81
2022-10-22T03:57:25.512Z,100900.94
2022-10-22T03:59:53.299Z,100903.16
2022-10-22T04:02:21.625Z,100890.59
2022-10-22T04:04:49.305Z,100883.44
2022-10-22T04:07:17.039Z,100873.47
2022-10-22T04:09:44.776Z,100893.88
2022-10-22T04:12:13.873Z,100894.88
2022-10-22T04:14:41.613Z,100891.75
2022-10-22T04:17:09.307Z,100894.81
2022-10-22T04:19:37.106Z,100894.31
2022-10-22T04:22:04.848Z,100897.81
2022-10-22T04:24:33.546Z,100888.59
2022-10-22T04:27:01.311Z,100893.25
2022-10-22T04:29:30.382Z,100890.03
2022-10-22T04:31:58.098Z,100893.44
2022-10-22T04:34:28.516Z,100889.66
2022-10-22T04:36:56.489Z,100893.31
2022-10-22T04:39:24.318Z,100887.41
2022-10-22T04:41:52.043Z,100891.59
2022-10-22T04:44:19.736Z,100885.63
2022-10-22T04:46:48.996Z,100880.31
2022-10-22T04:49:16.704Z,100888.56
2022-10-22T04:51:44.445Z,100899.84
2022-10-22T04:54:12.129Z,100902.69
2022-10-22T04:56:39.900Z,100844.63
2022-10-22T04:59:09.636Z,100896.22
2022-10-22T05:01:42.721Z,100892.16
2022-10-22T05:04:15.425Z,100898.78
2022-10-22T05:06:43.322Z,100901.66
2022-10-22T05:09:14.816Z,100901.19
2022-10-22T05:11:45.591Z,100909.16
2022-10-22T05:14:14.195Z,100902.44
2022-10-22T05:16:42.395Z,100902.00
2022-10-22T05:19:16.717Z,100914.09
2022-10-22T05:21:44.497Z,100917.97
2022-10-22T05:24:12.310Z,100925.13
2022-10-22T05:26:40.136Z,100922.97
2022-10-22T05:29:08.277Z,100925.81
2022-10-22T05:31:36.103Z,100929.50
2022-10-22T05:34:03.866Z,100929.66
2022-10-22T05:36:32.904Z,100920.50
2022-10-22T05:39:01.092Z,100922.44
2022-10-22T05:41:29.944Z,100915.06
2022-10-22T05:43:58.609Z,100916.34
2022-10-22T05:46:28.466Z,100928.56
2022-10-22T05:48:57.795Z,100920.13
2022-10-22T05:51:26.817Z,100932.34
2022-10-22T05:53:57.897Z,100934.59
2022-10-22T05:56:26.994Z,100925.94
2022-10-22T05:58:55.189Z,100931.25
2022-10-22T06:01:25.133Z,100932.16
2022-10-22T06:03:55.361Z,100919.53
2022-10-22T06:06:28.375Z,100937.72
2022-10-22T06:09:02.313Z,100937.38
2022-10-22T06:11:32.614Z,100939.56
2022-10-22T06:14:02.861Z,100941.19
2022-10-22T06:16:31.741Z,100948.06
2022-10-22T06:19:00.952Z,100945.44
2022-10-22T06:21:28.739Z,100951.88
2022-10-22T06:23:58.762Z,100958.09
2022-10-22T06:26:27.208Z,100946.94
2022-10-22T06:28:55.886Z,100944.28
2022-10-22T06:31:23.711Z,100927.97
2022-10-22T06:33:51.432Z,100949.56
2022-10-22T06:36:21.155Z,100953.94
2022-10-22T06:38:48.847Z,100953.66
2022-10-22T06:41:17.943Z,100965.94
2022-10-22T06:43:47.497Z,100966.47
2022-10-22T06:46:19.849Z,100968.09
2022-10-22T06:48:50.986Z,100971.69
2022-10-22T06:51:19.292Z,100968.06
2022-10-22T06:53:47.007Z,100975.53
2022-10-22T06:56:19.491Z,100981.59
2022-10-22T06:58:48.501Z,100981.88
2022-10-22T07:01:18.769Z,100944.47
2022-10-22T07:03:47.166Z,100983.75
2022-10-22T07:06:16.343Z,100979.75
2022-10-22T07:08:44.971Z,100989.03
2022-10-22T07:11:14.493Z,100987.47
2022-10-22T07:13:43.921Z,100985.66
2022-10-22T07:16:12.274Z,100993.66
2022-10-22T07:18:41.553Z,100978.59
2022-10-22T07:21:11.004Z,101000.94
2022-10-22T07:23:39.149Z,100976.19
2022-10-22T07:26:08.745Z,100999.41
2022-10-22T07:28:38.007Z,100996.94
2022-10-22T07:31:07.696Z,101009.75
2022-10-22T07:33:35.906Z,100946.94
2022-10-22T07:36:06.883Z,101016.13
2022-10-22T07:38:35.381Z,100998.41
2022-10-22T07:41:03.259Z,101019.03
2022-10-22T07:43:31.331Z,100963.78
2022-10-22T07:45:59.916Z,101023.84
2022-10-22T07:48:29.083Z,101018.22
2022-10-22T07:50:56.893Z,101015.66
2022-10-22T07:53:24.721Z,101015.75
2022-10-22T07:55:53.440Z,101015.44
2022-10-22T07:58:22.250Z,101008.81
2022-10-22T08:00:51.002Z,101016.03
2022-10-22T08:03:19.756Z,101015.16
2022-10-22T08:05:49.289Z,101010.59
2022-10-22T08:08:18.139Z,101007.69
2022-10-22T08:10:47.120Z,101012.00
2022-10-22T08:13:15.439Z,101019.59
2022-10-22T08:18:12.753Z,101020.06
2022-10-22T08:20:41.129Z,101028.16
2022-10-22T08:23:10.299Z,101028.66
2022-10-22T08:25:38.084Z,101020.78
2022-10-22T08:28:06.113Z,101018.56
2022-10-22T08:30:34.003Z,101031.09
2022-10-22T08:33:01.769Z,101035.84
2022-10-22T08:35:29.539Z,101025.50
2022-10-22T08:37:57.705Z,101033.94
2022-10-22T08:40:31.397Z,101038.13
2022-10-22T08:43:14.249Z,100979.16
2022-10-22T08:45:51.641Z,101046.09
2022-10-22T08:48:37.334Z,101055.31
2022-10-22T08:51:05.813Z,101058.13
2022-10-22T08:53:43.104Z,101065.00
2022-10-22T08:56:12.250Z,101061.09
2022-10-22T08:58:47.263Z,101072.22
2022-10-22T09:01:18.639Z,101077.84
2022-10-22T09:03:53.542Z,101068.97
2022-10-22T09:06:23.691Z,101076.16
2022-10-22T09:08:52.696Z,101034.88
2022-10-22T09:11:26.462Z,101071.41
2022-10-22T09:13:57.296Z,101074.53
2022-10-22T09:16:33.408Z,101063.34
2022-10-22T09:19:14.034Z,101063.66
2022-10-22T09:21:51.940Z,101074.91
2022-10-22T09:24:33.264Z,101070.03
2022-10-22T09:27:08.964Z,101003.63
2022-10-22T09:29:36.667Z,101073.50
2022-10-22T09:32:04.912Z,101081.56
2022-10-22T09:34:32.626Z,101078.00
2022-10-22T09:37:01.965Z,101080.75
2022-10-22T09:39:33.501Z,101075.81
2022-10-22T09:42:02.585Z,101088.03
2022-10-22T09:44:30.445Z,101083.28
2022-10-22T09:46:58.231Z,101080.56
2022-10-22T09:49:25.989Z,101086.09
2022-10-22T09:51:56.084Z,101085.28
2022-10-22T09:54:26.214Z,101082.06
2022-10-22T09:56:59.134Z,101093.16
2022-10-22T09:59:31.793Z,101056.41
2022-10-22T10:02:19.760Z,101084.19
2022-10-22T10:04:56.527Z,101089.16
2022-10-22T10:07:26.661Z,101077.53
2022-10-22T10:09:55.525Z,101081.31
2022-10-22T10:12:36.887Z,101089.19
2022-10-22T10:15:19.381Z,101097.34
2022-10-22T10:17:55.368Z,101093.69
2022-10-22T10:20:41.906Z,101080.06
2022-10-22T10:23:23.052Z,101085.13
2022-10-22T10:25:58.431Z,101079.25
2022-10-22T10:28:49.070Z,101091.91
2022-10-22T10:31:29.282Z,101083.88
2022-10-22T10:34:07.541Z,101084.59
2022-10-22T10:36:45.973Z,101090.53
2022-10-22T10:39:20.693Z,101090.22
2022-10-22T10:41:56.229Z,101090.34
2022-10-22T10:44:49.487Z,101091.81
2022-10-22T10:47:30.639Z,101096.69
2022-10-22T10:50:12.242Z,101094.75
2022-10-22T10:52:46.295Z,101100.50
2022-10-22T10:55:23.460Z,101097.22
2022-10-22T10:57:59.879Z,101107.44
2022-10-22T11:00:30.731Z,101109.91
2022-10-22T11:03:35.357Z,101108.38
2022-10-22T11:06:08.577Z,101087.66
2022-10-22T11:08:41.942Z,101106.59
2022-10-22T11:13:53.908Z,101098.97
2022-10-22T11:16:28.125Z,101092.09
2022-10-22T11:19:03.433Z,101097.34
2022-10-22T11:21:37.392Z,101086.34
2022-10-22T11:24:16.681Z,101105.47
2022-10-22T11:26:49.055Z,101056.25
2022-10-22T11:29:23.660Z,101104.66
2022-10-22T11:31:55.469Z,101102.69
2022-10-22T11:34:33.552Z,101093.03
2022-10-22T11:37:03.993Z,101101.53
2022-10-22T11:39:35.988Z,101090.38
2022-10-22T11:42:07.086Z,101072.22
2022-10-22T11:44:47.579Z,101065.22
2022-10-22T11:47:21.388Z,101093.72
2022-10-22T11:50:00.733Z,101098.47
2022-10-22T11:52:40.401Z,101095.78
2022-10-22T11:55:32.272Z,101090.84
2022-10-22T11:58:01.866Z,101100.06
2022-10-22T12:00:41.009Z,101091.59
2022-10-22T12:03:18.970Z,101099.50
2022-10-22T12:05:55.106Z,101091.03
2022-10-22T12:08:27.736Z,101097.06
2022-10-22T12:11:05.557Z,101095.84
2022-10-22T12:13:43.443Z,101110.53
2022-10-22T12:16:14.240Z,101105.44
2022-10-22T12:18:45.668Z,101113.28
2022-10-22T12:21:16.937Z,101102.50
2022-10-22T12:23:46.728Z,101115.84
2022-10-22T12:26:28.047Z,101109.94
2022-10-22T12:28:59.701Z,101108.66
2022-10-22T12:31:27.801Z,101108.88
2022-10-22T12:33:58.821Z,101075.81
2022-10-22T12:36:28.646Z,101100.03
2022-10-22T12:38:56.733Z,101110.72
2022-10-22T12:41:31.673Z,101088.34
2022-10-22T12:44:03.149Z,101122.97
2022-10-22T12:46:33.867Z,101119.06
2022-10-22T12:49:02.728Z,101121.75
2022-10-22T12:54:09.819Z,101110.69
2022-10-22T12:56:38.874Z,101058.38
2022-10-22T12:59:14.959Z,101116.16
2022-10-22T13:01:44.401Z,101120.09
2022-10-22T13:04:22.079Z,101072.41
2022-10-22T13:06:52.508Z,101120.34
2022-10-22T13:09:25.229Z,101122.13
2022-10-22T13:11:58.263Z,101123.41
2022-10-22T13:14:29.775Z,101125.25
2022-10-22T13:17:12.826Z,101113.97
2022-10-22T13:19:47.392Z,101109.50
2022-10-22T13:22:34.760Z,101109.88
2022-10-22T13:25:21.192Z,101072.31
2022-10-22T13:27:50.911Z,101103.44
2022-10-22T13:30:22.415Z,101101.09
2022-10-22T13:32:52.180Z,101096.38
2022-10-22T13:35:24.410Z,101093.19
2022-10-22T13:37:53.983Z,101094.72
2022-10-22T13:40:22.380Z,101096.84
2022-10-22T13:42:50.043Z,101098.84
2022-10-22T13:45:18.857Z,101100.69
2022-10-22T13:47:54.634Z,101100.94
2022-10-22T13:50:22.873Z,101057.19
2022-10-22T13:52:54.519Z,101092.38
2022-10-22T13:55:25.555Z,101095.84
2022-10-22T13:57:56.101Z,101102.06
2022-10-22T14:00:26.889Z,101108.53
2022-10-22T14:02:59.108Z,101115.78
2022-10-22T14:05:27.515Z,101111.06
2022-10-22T14:07:57.917Z,101119.25
2022-10-22T14:10:26.152Z,101099.69
2022-10-22T14:12:54.158Z,101115.75
2022-10-22T14:15:23.861Z,101116.28
2022-10-22T14:17:56.917Z,101119.81
2022-10-22T14:20:27.803Z,101114.41
2022-10-22T14:22:57.263Z,101111.75
2022-10-22T14:25:26.585Z,101112.13
2022-10-22T14:27:54.738Z,101127.44
2022-10-22T14:30:24.566Z,101122.06
2022-10-22T14:32:52.547Z,101125.28
2022-10-22T14:35:23.266Z,101125.81
2022-10-22T14:37:51.945Z,101130.28
2022-10-22T14:40:22.270Z,101132.38
2022-10-22T14:42:50.265Z,101060.88
2022-10-22T14:45:21.070Z,101123.31
2022-10-22T14:47:48.963Z,101132.16
2022-10-22T14:50:17.257Z,101127.41
2022-10-22T14:52:45.788Z,101132.63
2022-10-22T14:55:15.997Z,101135.78
2022-10-22T14:57:45.896Z,101135.03
2022-10-22T15:00:16.483Z,101137.47
2022-10-22T15:02:45.166Z,101144.28
2022-10-22T15:05:13.491Z,101144.94
2022-10-22T15:07:41.763Z,101145.03
2022-10-22T15:10:10.812Z,101149.50
2022-10-22T15:12:38.677Z,101147.22
2022-10-22T15:15:08.994Z,101164.44
2022-10-22T15:17:36.732Z,101175.41
2022-10-22T15:20:05.827Z,101187.97
2022-10-22T15:22:35.603Z,101157.22
2022-10-22T15:25:04.706Z,101195.75
2022-10-22T15:27:32.405Z,101188.16
2022-10-22T15:30:00.278Z,101193.22
2022-10-22T15:32:29.788Z,101203.88
2022-10-22T15:34:57.571Z,101204.25
2022-10-22T15:37:25.405Z,101199.88
2022-10-22T15:39:53.122Z,101203.78
2022-10-22T15:42:20.937Z,101203.81
2022-10-22T15:44:48.695Z,101199.53
2022-10-22T15:47:16.420Z,101215.47
2022-10-22T15:49:45.890Z,101211.00
2022-10-22T15:52:13.673Z,101223.66
2022-10-22T15:54:43.795Z,101217.78
2022-10-22T15:57:11.518Z,101215.75
2022-10-22T15:59:39.222Z,101232.59
2022-10-22T16:02:08.111Z,101229.59
2022-10-22T16:04:35.843Z,101224.97
2022-10-22T16:07:05.023Z,101231.34
2022-10-22T16:09:32.747Z,101233.75
2022-10-22T16:12:00.616Z,101228.72
2022-10-22T16:14:28.891Z,101242.41
2022-10-22T16:16:57.261Z,101244.66
2022-10-22T16:19:27.173Z,101224.69
2022-10-22T16:21:56.777Z,101249.16
2022-10-22T16:24:25.970Z,101252.13
2022-10-22T16:26:53.903Z,101253.59
2022-10-22T16:29:21.729Z,101257.16
2022-10-22T16:31:49.615Z,101253.97
2022-10-22T16:34:17.436Z,101262.84
2022-10-22T16:36:45.267Z,101268.78
2022-10-22T16:39:13.085Z,101272.34
2022-10-22T16:41:42.238Z,101273.66
2022-10-22T16:44:12.334Z,101278.50
2022-10-22T16:46:40.097Z,101273.88
2022-10-22T16:49:08.446Z,101270.94
2022-10-22T16:51:36.610Z,101278.03
2022-10-22T16:54:06.936Z,101285.91
2022-10-22T16:56:37.609Z,101288.22
2022-10-22T16:59:07.820Z,101277.16
2022-10-22T17:01:40.326Z,101284.16
2022-10-22T17:04:09.179Z,101283.03
2022-10-22T17:06:37.229Z,101262.63
2022-10-22T17:09:05.691Z,101293.91
2022-10-22T17:11:36.356Z,101291.69
2022-10-22T17:14:07.752Z,101290.53
2022-10-22T17:16:35.660Z,101295.59
2022-10-22T17:19:05.205Z,101304.31
2022-10-22T17:21:33.989Z,101303.25
2022-10-22T17:24:01.858Z,101304.88
2022-10-22T17:26:30.460Z,101309.47
2022-10-22T17:28:58.755Z,101304.69
2022-10-22T17:31:29.837Z,101316.13
2022-10-22T17:33:59.866Z,101312.84
2022-10-22T17:36:33.342Z,101314.22
2022-10-22T17:39:06.538Z,101318.00
2022-10-22T17:41:37.271Z,101310.66
2022-10-22T17:44:09.132Z,101322.59
2022-10-22T17:46:39.341Z,101330.53
2022-10-22T17:49:13.370Z,101307.06
2022-10-22T17:51:41.689Z,101328.97
2022-10-22T17:54:10.275Z,101341.53
2022-10-22T17:56:40.289Z,101334.75
2022-10-22T17:59:08.709Z,101337.38
2022-10-22T18:01:43.483Z,101344.03
2022-10-22T18:04:14.246Z,101344.88
2022-10-22T18:06:42.238Z,101349.69
2022-10-22T18:09:17.215Z,101350.47
2022-10-22T18:11:46.852Z,101352.69
2022-10-22T18:14:14.844Z,101350.59
2022-10-22T18:16:44.103Z,101349.63
2022-10-22T18:19:13.530Z,101352.78
2022-10-22T18:21:41.626Z,101356.34
2022-10-22T18:24:10.794Z,101350.25
2022-10-22T18:26:38.962Z,101347.22
2022-10-22T18:29:06.743Z,101354.00
2022-10-22T18:31:34.439Z,101332.31
2022-10-22T18:34:03.557Z,101358.28
2022-10-22T18:36:31.476Z,101325.13
2022-10-22T18:39:01.120Z,101355.09
2022-10-22T18:41:30.325Z,101366.16
2022-10-22T18:43:59.833Z,101359.47
2022-10-22T18:46:28.761Z,101372.03
2022-10-22T18:48:56.922Z,101363.41
2022-10-22T18:51:28.388Z,101321.72
2022-10-22T18:54:11.279Z,101367.00
2022-10-22T18:56:44.502Z,101376.50
2022-10-22T18:59:16.259Z,101375.53
2022-10-22T19:01:44.019Z,101367.94
2022-10-22T19:04:13.164Z,101372.91
2022-10-22T19:06:45.734Z,101351.78
2022-10-22T19:09:14.786Z,101365.91
2022-10-22T19:11:43.872Z,101385.03
2022-10-22T19:14:11.715Z,101383.00
2022-10-22T19:16:39.664Z,101385.22
2022-10-22T19:19:08.580Z,101379.09
2022-10-22T19:21:37.686Z,101387.09
2022-10-22T19:24:07.965Z,101386.81
2022-10-22T19:26:36.188Z,101378.00
2022-10-22T19:29:04.928Z,101385.72
2022-10-22T19:31:33.143Z,101391.84
2022-10-22T19:34:02.179Z,101390.47
2022-10-22T19:36:31.220Z,101396.94
2022-10-22T19:38:59.793Z,101404.28
2022-10-22T19:41:31.490Z,101398.59
2022-10-22T19:44:00.446Z,101392.53
2022-10-22T19:46:30.273Z,101399.28
2022-10-22T19:48:58.102Z,101405.78
2022-10-22T19:51:27.892Z,101357.13
2022-10-22T19:53:59.636Z,101418.13
2022-10-22T19:56:29.318Z,101403.31
2022-10-22T19:58:57.051Z,101411.50
2022-10-22T20:01:25.137Z,101417.84
2022-10-22T20:03:53.566Z,101415.53
2022-10-22T20:06:21.969Z,101360.03
2022-10-22T20:08:53.766Z,101425.44
2022-10-22T20:11:25.867Z,101421.56
2022-10-22T20:13:55.908Z,101435.81
2022-10-22T20:16:26.048Z,101403.25
2022-10-22T20:18:54.203Z,101439.50
2022-10-22T20:21:22.668Z,101447.22
2022-10-22T20:23:54.357Z,101450.47
2022-10-22T20:26:23.897Z,101448.03
2022-10-22T20:28:51.904Z,101451.19
2022-10-22T20:31:23.011Z,101441.56
2022-10-22T20:33:51.463Z,101445.75
2022-10-22T20:36:21.828Z,101451.19
2022-10-22T20:38:50.165Z,101436.78
2022-10-22T20:41:19.506Z,101385.00
2022-10-22T20:43:47.810Z,101447.31
2022-10-22T20:46:19.525Z,101448.50
2022-10-22T20:48:48.953Z,101445.56
2022-10-22T20:51:16.790Z,101401.19
2022-10-22T20:53:44.540Z,101447.47
2022-10-22T20:56:13.507Z,101413.25
2022-10-22T20:58:46.493Z,101400.38
2022-10-22T21:01:20.430Z,101448.06
2022-10-22T21:03:50.343Z,101462.41
2022-10-22T21:06:20.956Z,101448.47
2022-10-22T21:08:49.010Z,101452.47
2022-10-22T21:11:16.888Z,101448.69
2022-10-22T21:13:45.010Z,101455.31
2022-10-22T21:16:14.618Z,101452.78
2022-10-22T21:18:42.454Z,101448.59
2022-10-22T21:21:11.701Z,101446.50
2022-10-22T21:23:40.278Z,101457.69
2022-10-22T21:26:08.166Z,101459.69
2022-10-22T21:28:37.301Z,101454.25
2022-10-22T21:31:06.742Z,101460.31
2022-10-22T21:33:37.212Z,101454.34
2022-10-22T21:36:06.338Z,101460.00
2022-10-22T21:38:35.914Z,101455.44
2022-10-22T21:41:05.995Z,101465.63
2022-10-22T21:43:33.885Z,101437.75
2022-10-22T21:46:07.954Z,101426.56
2022-10-22T21:48:36.660Z,101466.88
2022-10-22T21:51:08.518Z,101471.97
2022-10-22T21:53:38.319Z,101467.41
2022-10-22T21:56:07.250Z,101474.81
2022-10-22T21:58:35.940Z,101467.81
2022-10-22T22:01:04.572Z,101438.81
2022-10-22T22:03:32.341Z,101414.91
2022-10-22T22:06:01.136Z,101464.09
2022-10-22T22:08:29.449Z,101469.91
2022-10-22T22:11:04.211Z,101442.53
2022-10-22T22:13:32.486Z,101458.66
2022-10-22T22:16:01.546Z,101459.28
2022-10-22T22:18:30.299Z,101465.88
2022-10-22T22:20:58.324Z,101474.19
2022-10-22T22:23:26.656Z,101467.34
2022-10-22T22:25:54.354Z,101470.50
2022-10-22T22:28:23.446Z,101466.06
2022-10-22T22:30:51.227Z,101475.00
2022-10-22T22:33:19.090Z,101470.25
2022-10-22T22:35:46.808Z,101441.94
2022-10-22T22:38:14.705Z,101464.53
2022-10-22T22:40:43.232Z,101461.31
2022-10-22T22:43:12.093Z,101461.22
2022-10-22T22:45:41.144Z,101463.91
2022-10-22T22:48:09.021Z,101449.75
2022-10-22T22:50:37.157Z,101460.94
2022-10-22T22:53:04.923Z,101451.69
2022-10-22T22:55:32.893Z,101464.63
2022-10-22T22:58:00.631Z,101465.50
2022-10-22T23:00:28.470Z,101464.66
2022-10-22T23:02:58.025Z,101420.09
2022-10-22T23:05:25.832Z,101461.44
2022-10-22T23:07:54.109Z,101460.25
2022-10-22T23:10:21.941Z,101454.22
2022-10-22T23:12:50.606Z,101447.25
2022-10-22T23:15:18.500Z,101463.34
2022-10-22T23:17:46.241Z,101466.78
2022-10-22T23:20:15.366Z,101461.28
2022-10-22T23:22:43.373Z,101470.84
2022-10-22T23:25:11.320Z,101462.97
2022-10-22T23:27:39.034Z,101478.91
2022-10-22T23:30:08.054Z,101473.69
2022-10-22T23:32:35.694Z,101475.44
2022-10-22T23:35:03.377Z,101475.66
2022-10-22T23:37:32.608Z,101471.56
2022-10-22T23:40:00.322Z,101469.88
2022-10-22T23:42:28.045Z,101486.19
2022-10-22T23:44:55.895Z,101475.97
2022-10-22T23:47:23.616Z,101470.28
2022-10-22T23:49:51.294Z,101473.88
2022-10-22T23:52:19.022Z,101476.28
2022-10-22T23:54:49.603Z,101461.06
2022-10-22T23:57:17.307Z,101447.19
2022-10-22T23:59:45.071Z,101473.84
